Time;durP1;ratioP1;P1;durP2;ratioP2;P2;SDS_P1;SDS_P2;PMS_P1;PMS_P2;Temp;Humidity;BMP_temperature;BMP_pressure;BME280_temperature;BME280_humidity;BME280_pressure;Samples;Min_cycle;Max_cycle;Signal;HPM_P1;HPM_P2
2023/09/09 00:00:39;;;;;;;8.20;3.70;;;;;;;21.96;65.10;100044.81;4839915;29;20057;-41
2023/09/09 00:03:04;;;;;;;6.15;3.88;;;;;;;21.73;65.64;100038.03;4839953;29;20053;-41
2023/09/09 00:05:30;;;;;;;6.03;3.83;;;;;;;21.89;65.35;100039.66;4840000;29;20129;-41
2023/09/09 00:07:56;;;;;;;6.03;3.72;;;;;;;22.10;64.67;100048.56;4839759;29;20086;-42
2023/09/09 00:10:21;;;;;;;9.27;4.35;;;;;;;22.17;64.45;100038.28;4839144;29;20029;-41
2023/09/09 00:12:46;;;;;;;9.50;4.03;;;;;;;21.99;65.12;100028.81;4839405;29;20042;-42
2023/09/09 00:15:12;;;;;;;12.57;6.68;;;;;;;22.20;64.21;100036.91;4838261;29;20110;-41
2023/09/09 00:17:37;;;;;;;11.80;8.75;;;;;;;22.19;64.39;100032.59;4839416;29;20034;-41
2023/09/09 00:20:06;;;;;;;10.05;6.88;;;;;;;22.23;64.32;100031.75;4839405;29;20113;-42
2023/09/09 00:22:32;;;;;;;11.10;6.20;;;;;;;21.85;66.01;100023.13;4839965;29;20025;-42
2023/09/09 00:24:57;;;;;;;7.20;5.60;;;;;;;21.93;65.43;100031.78;4839368;29;20042;-43
2023/09/09 00:27:23;;;;;;;7.97;5.50;;;;;;;21.59;66.76;100029.63;4839738;29;20083;-40
2023/09/09 00:29:48;;;;;;;7.65;5.28;;;;;;;21.96;65.54;100028.56;4842266;29;20114;-41
2023/09/09 00:32:13;;;;;;;7.25;4.80;;;;;;;22.12;64.63;100032.84;4838431;29;20038;-41
2023/09/09 00:34:39;;;;;;;6.40;4.70;;;;;;;22.23;63.96;100026.34;4824838;29;20113;-40
2023/09/09 00:37:04;;;;;;;6.20;4.47;;;;;;;22.30;63.73;100036.13;4824270;29;20499;-41
2023/09/09 00:39:31;;;;;;;6.63;4.18;;;;;;;22.32;63.49;100029.34;4838681;29;20118;-42
2023/09/09 00:41:56;;;;;;;6.90;4.20;;;;;;;22.31;62.87;100030.41;4824452;29;20514;-40
2023/09/09 00:44:21;;;;;;;6.28;3.58;;;;;;;22.37;62.78;100034.75;4824173;29;20034;-40
2023/09/09 00:46:47;;;;;;;6.13;3.60;;;;;;;22.38;62.63;100033.66;4824490;29;20453;-40
2023/09/09 00:49:13;;;;;;;7.45;3.88;;;;;;;22.34;62.64;100029.88;4824393;29;20127;-40
2023/09/09 00:51:39;;;;;;;7.15;3.88;;;;;;;22.33;62.47;100024.72;4824329;29;20034;-40
2023/09/09 00:54:05;;;;;;;5.30;3.65;;;;;;;22.31;62.71;100026.91;4822416;29;20513;-40
2023/09/09 00:56:33;;;;;;;7.47;3.92;;;;;;;22.32;62.58;100021.22;4824537;29;20070;-41
2023/09/09 00:58:58;;;;;;;8.18;3.97;;;;;;;22.21;62.50;100020.38;4829900;29;20179;-41
2023/09/09 01:01:24;;;;;;;5.30;3.78;;;;;;;22.31;62.53;100021.47;4842366;29;20109;-41
2023/09/09 01:03:53;;;;;;;5.82;3.85;;;;;;;22.33;62.42;100019.31;4843125;29;20026;-42
2023/09/09 01:06:20;;;;;;;6.13;3.92;;;;;;;22.35;62.47;100015.25;4842765;29;20026;-40
2023/09/09 01:08:46;;;;;;;5.85;3.83;;;;;;;22.35;62.34;100015.25;4842360;29;20041;-42
2023/09/09 01:11:11;;;;;;;5.03;3.75;;;;;;;22.42;62.19;100015.75;4842259;29;20034;-43
2023/09/09 01:13:37;;;;;;;5.15;3.60;;;;;;;22.45;61.98;100003.56;4842438;29;20040;-40
2023/09/09 01:16:02;;;;;;;6.97;3.88;;;;;;;22.43;62.11;100000.31;4842120;29;20030;-44
2023/09/09 01:18:28;;;;;;;4.93;3.45;;;;;;;22.39;62.20;99996.50;4841033;29;20030;-44
2023/09/09 01:21:02;;;;;;;7.53;4.05;;;;;;;22.31;62.55;99995.16;4842205;29;20077;-40
2023/09/09 01:23:28;;;;;;;5.82;3.88;;;;;;;22.33;62.58;99997.63;4842165;29;20110;-42
2023/09/09 01:25:53;;;;;;;7.05;4.07;;;;;;;22.35;62.99;99998.97;4853526;29;20455;-41
2023/09/09 01:28:22;;;;;;;6.30;4.30;;;;;;;22.34;62.92;99993.84;4860606;29;20041;-40
2023/09/09 01:30:50;;;;;;;8.88;3.85;;;;;;;22.29;63.52;100005.47;4860506;29;20040;-41
2023/09/09 01:33:16;;;;;;;6.47;4.20;;;;;;;22.31;63.36;99997.88;4860550;29;20103;-41
2023/09/09 01:35:41;;;;;;;6.85;4.32;;;;;;;22.33;63.52;99989.47;4860505;29;20509;-41
2023/09/09 01:38:07;;;;;;;7.90;4.20;;;;;;;22.28;63.77;99998.44;4858944;29;20057;-41
2023/09/09 01:40:32;;;;;;;6.57;4.30;;;;;;;22.39;63.13;99989.22;4859457;29;20033;-43
2023/09/09 01:42:58;;;;;;;7.82;4.40;;;;;;;22.41;63.22;99999.78;4860177;29;20041;-41
2023/09/09 01:45:23;;;;;;;6.57;3.88;;;;;;;22.51;62.83;99994.31;4860294;29;20033;-43
2023/09/09 01:47:48;;;;;;;8.75;4.38;;;;;;;22.53;63.05;99991.34;4859968;29;20095;-42
2023/09/09 01:50:14;;;;;;;7.80;4.07;;;;;;;22.53;62.87;99989.41;4860065;29;20030;-43
2023/09/09 01:52:39;;;;;;;5.97;4.25;;;;;;;22.63;62.60;99999.41;4860100;29;20101;-42
2023/09/09 01:55:05;;;;;;;8.70;4.40;;;;;;;22.72;62.08;100000.47;4857125;29;20029;-40
2023/09/09 01:57:30;;;;;;;8.95;4.38;;;;;;;22.71;62.00;100004.25;4859091;29;20398;-41
2023/09/09 01:59:57;;;;;;;10.70;5.25;;;;;;;22.55;62.46;99976.41;4859696;29;20041;-41
2023/09/09 02:02:22;;;;;;;6.80;3.97;;;;;;;22.68;62.36;99993.19;4859931;29;20113;-41
2023/09/09 02:04:48;;;;;;;8.77;4.30;;;;;;;22.69;62.31;100003.72;4860070;29;20112;-41
2023/09/09 02:07:13;;;;;;;6.18;4.18;;;;;;;22.63;62.78;99997.50;4856655;29;20026;-41
2023/09/09 02:09:39;;;;;;;7.85;3.95;;;;;;;22.70;62.79;99996.41;4851807;29;20063;-43
2023/09/09 02:12:05;;;;;;;5.75;4.18;;;;;;;22.71;62.80;99996.13;4859655;29;20032;-41
2023/09/09 02:14:31;;;;;;;7.63;4.40;;;;;;;22.73;62.02;100004.81;4856920;29;20030;-43
2023/09/09 02:16:56;;;;;;;5.72;3.90;;;;;;;22.71;62.20;99993.41;4845354;29;20118;-42
2023/09/09 02:19:22;;;;;;;8.05;4.13;;;;;;;22.64;62.28;99991.00;4848665;29;20435;-41
2023/09/09 02:21:47;;;;;;;6.07;3.90;;;;;;;22.67;62.40;99991.53;4859283;29;20116;-41
2023/09/09 02:24:13;;;;;;;6.93;3.70;;;;;;;22.71;62.63;99990.69;4854341;29;20405;-41
2023/09/09 02:26:39;;;;;;;5.45;3.92;;;;;;;22.70;62.56;99989.09;4842193;29;20037;-42
2023/09/09 02:29:04;;;;;;;5.80;3.60;;;;;;;22.70;62.56;99999.13;4840852;29;20084;-41
2023/09/09 02:31:30;;;;;;;8.35;4.05;;;;;;;22.77;61.82;99992.31;4840686;29;20034;-41
2023/09/09 02:33:55;;;;;;;8.93;4.13;;;;;;;22.74;62.02;99994.78;4858136;29;20116;-41
2023/09/09 02:36:20;;;;;;;8.57;4.38;;;;;;;22.65;62.35;100003.47;4858524;29;20039;-41
2023/09/09 02:38:46;;;;;;;6.28;4.00;;;;;;;22.63;62.32;100000.22;4859267;29;20030;-41
2023/09/09 02:41:11;;;;;;;4.82;3.67;;;;;;;22.60;62.35;100008.94;4859378;29;20036;-41
2023/09/09 02:43:37;;;;;;;5.38;3.65;;;;;;;22.64;62.53;99993.72;4858825;29;20029;-41
2023/09/09 02:46:03;;;;;;;6.22;3.92;;;;;;;22.64;62.50;99991.00;4859370;29;20434;-41
2023/09/09 02:48:29;;;;;;;8.85;4.22;;;;;;;22.63;62.23;99999.41;4858713;29;20392;-42
2023/09/09 02:50:54;;;;;;;6.18;4.10;;;;;;;22.61;62.08;100002.41;4858922;29;20108;-43
2023/09/09 02:53:19;;;;;;;7.10;4.15;;;;;;;22.59;62.46;99996.44;4858729;29;20068;-42
2023/09/09 02:55:45;;;;;;;7.60;4.10;;;;;;;22.57;62.67;99990.50;4858586;29;20033;-41
2023/09/09 02:58:12;;;;;;;7.07;4.13;;;;;;;22.53;62.88;99997.56;4858512;29;20135;-45
2023/09/09 03:00:38;;;;;;;6.88;4.47;;;;;;;22.52;62.75;99992.41;4858141;29;20045;-40
2023/09/09 03:03:04;;;;;;;8.07;4.75;;;;;;;22.45;63.12;99990.00;4858873;29;20033;-41
2023/09/09 03:05:29;;;;;;;5.32;4.20;;;;;;;22.48;64.44;99985.91;4858655;29;20033;-41
2023/09/09 03:07:57;;;;;;;6.53;4.40;;;;;;;22.56;63.35;99988.03;4858629;29;20026;-39
2023/09/09 03:10:23;;;;;;;9.70;4.32;;;;;;;22.56;62.88;99972.59;4858746;29;20070;-41
2023/09/09 03:12:49;;;;;;;9.20;4.78;;;;;;;22.53;62.90;99981.28;4859052;29;20053;-40
2023/09/09 03:15:14;;;;;;;6.60;4.97;;;;;;;22.53;63.22;99980.47;4858672;29;20541;-42
2023/09/09 03:17:39;;;;;;;75.13;44.65;;;;;;;22.33;63.06;99962.38;4858697;29;20030;-42
2023/09/09 03:20:07;;;;;;;34.15;20.92;;;;;;;22.34;63.74;99980.28;4858227;29;20158;-40
2023/09/09 03:22:33;;;;;;;12.25;8.25;;;;;;;22.32;63.63;99979.75;4858319;29;20029;-44
2023/09/09 03:24:58;;;;;;;8.77;5.30;;;;;;;22.33;63.46;99975.94;4857629;29;20032;-43
2023/09/09 03:27:24;;;;;;;6.10;4.40;;;;;;;22.15;64.25;99978.13;4858334;29;20026;-43
2023/09/09 03:29:49;;;;;;;7.38;5.13;;;;;;;22.07;64.49;99970.56;4858094;29;20037;-41
2023/09/09 03:32:15;;;;;;;8.45;4.75;;;;;;;22.13;64.53;99974.88;4858638;29;20094;-41
2023/09/09 03:34:40;;;;;;;6.72;5.13;;;;;;;21.93;65.66;99978.41;4858418;29;20320;-42
2023/09/09 03:37:06;;;;;;;8.50;5.28;;;;;;;21.85;65.89;99973.56;4858243;29;20439;-40
2023/09/09 03:39:32;;;;;;;8.50;5.45;;;;;;;21.91;65.56;99977.06;4858647;29;20113;-41
2023/09/09 03:41:57;;;;;;;20.80;13.27;;;;;;;21.97;65.30;99975.97;4858468;29;20120;-41
2023/09/09 03:44:23;;;;;;;38.50;23.42;;;;;;;21.97;65.12;99979.53;4858299;29;20041;-42
2023/09/09 03:46:48;;;;;;;15.90;9.55;;;;;;;22.05;64.96;99987.09;4858316;29;20133;-42
2023/09/09 03:49:14;;;;;;;10.75;5.93;;;;;;;22.00;65.00;99986.28;4858130;29;20029;-41
2023/09/09 03:51:40;;;;;;;9.43;5.40;;;;;;;21.99;65.05;99990.91;4858366;29;20037;-42
2023/09/09 03:54:05;;;;;;;8.10;4.88;;;;;;;21.93;65.25;99986.53;4858328;29;20029;-41
2023/09/09 03:56:31;;;;;;;6.07;4.53;;;;;;;21.90;65.33;99991.72;4858024;29;20388;-40
2023/09/09 03:58:56;;;;;;;8.13;5.35;;;;;;;21.84;65.70;99980.88;4858169;29;20053;-41
2023/09/09 04:01:21;;;;;;;9.65;5.05;;;;;;;21.73;66.02;99987.38;4858203;29;20033;-40
2023/09/09 04:03:47;;;;;;;70.50;43.97;;;;;;;21.82;66.00;99988.47;4859650;29;20032;-42
2023/09/09 04:06:13;;;;;;;29.67;17.30;;;;;;;21.93;65.74;99993.88;4862059;29;20025;-42
2023/09/09 04:08:39;;;;;;;12.82;7.07;;;;;;;21.44;67.54;99982.50;4861968;29;20037;-40
2023/09/09 04:11:05;;;;;;;8.25;5.05;;;;;;;21.38;67.65;99978.16;4862034;29;20025;-41
2023/09/09 04:13:32;;;;;;;8.75;5.38;;;;;;;21.72;66.70;99990.38;4862114;29;20089;-41
2023/09/09 04:15:58;;;;;;;6.50;4.72;;;;;;;21.91;66.33;99988.72;4861857;29;20041;-41
2023/09/09 04:18:25;;;;;;;8.80;5.22;;;;;;;21.89;66.22;99995.50;4861776;29;20104;-43
2023/09/09 04:20:50;;;;;;;8.35;5.25;;;;;;;22.05;65.81;99994.41;4861697;29;20076;-42
2023/09/09 04:23:17;;;;;;;7.80;4.50;;;;;;;22.14;65.47;99990.06;4861794;29;20534;-41
2023/09/09 04:25:46;;;;;;;8.52;4.85;;;;;;;22.22;65.63;99986.78;4861809;29;20118;-41
2023/09/09 04:28:12;;;;;;;5.35;4.60;;;;;;;22.42;65.14;99982.41;4861409;29;20057;-43
2023/09/09 04:30:39;;;;;;;7.25;4.88;;;;;;;22.68;64.55;99993.19;4861389;29;20144;-40
2023/09/09 04:33:06;;;;;;;9.30;4.88;;;;;;;22.86;63.54;99997.16;4850436;29;20128;-42
2023/09/09 04:35:32;;;;;;;8.63;4.45;;;;;;;23.22;62.47;99989.63;4843365;29;20112;-40
2023/09/09 04:37:57;;;;;;;6.82;4.57;;;;;;;23.49;61.89;99991.09;4842708;29;20133;-41
2023/09/09 04:40:22;;;;;;;8.65;4.65;;;;;;;23.79;60.92;99987.34;4843160;29;20041;-41
2023/09/09 04:42:48;;;;;;;5.38;4.38;;;;;;;23.90;60.63;99986.16;4842758;29;20503;-41
2023/09/09 04:45:13;;;;;;;6.50;4.05;;;;;;;23.43;60.60;99987.59;4843046;29;20109;-41
2023/09/09 04:47:39;;;;;;;6.93;4.25;;;;;;;22.69;63.53;99992.88;4842830;29;20021;-41
2023/09/09 04:50:04;;;;;;;6.88;4.13;;;;;;;22.81;63.24;99992.56;4842742;29;20022;-40
2023/09/09 04:52:30;;;;;;;6.90;4.30;;;;;;;22.92;62.59;99996.03;4842792;29;20438;-43
2023/09/09 04:54:55;;;;;;;5.22;3.90;;;;;;;23.15;62.23;99978.28;4861677;29;20048;-40
2023/09/09 04:57:21;;;;;;;6.55;4.15;;;;;;;23.30;61.28;99983.59;4860982;29;20029;-40
2023/09/09 04:59:46;;;;;;;9.73;3.88;;;;;;;23.64;60.87;99985.53;4861021;29;20065;-40
2023/09/09 05:02:13;;;;;;;6.22;3.83;;;;;;;23.86;59.65;99976.16;4860802;29;20026;-41
2023/09/09 05:04:39;;;;;;;5.93;3.72;;;;;;;23.99;58.55;99981.72;4860866;29;20166;-40
2023/09/09 05:07:05;;;;;;;5.22;3.80;;;;;;;24.10;58.38;99979.69;4860380;29;20030;-43
2023/09/09 05:09:30;;;;;;;6.70;3.95;;;;;;;24.49;57.11;99984.16;4860476;29;20028;-39
2023/09/09 05:11:55;;;;;;;6.75;3.80;;;;;;;24.82;55.73;99984.31;4860174;29;20170;-42
2023/09/09 05:14:21;;;;;;;5.90;3.65;;;;;;;25.17;54.63;99979.50;4860698;29;20236;-42
2023/09/09 05:16:46;;;;;;;6.30;3.33;;;;;;;25.04;54.80;99986.47;4859658;29;20470;-42
2023/09/09 05:19:12;;;;;;;4.47;3.53;;;;;;;25.16;54.83;99980.59;4860546;29;20032;-41
2023/09/09 05:21:37;;;;;;;5.35;3.70;;;;;;;25.41;53.88;99987.56;4860661;29;20057;-41
2023/09/09 05:24:02;;;;;;;6.32;4.10;;;;;;;25.53;53.41;99978.94;4860602;29;20108;-41
2023/09/09 05:26:28;;;;;;;9.30;4.68;;;;;;;25.68;52.53;99973.25;4860109;29;20470;-41
2023/09/09 05:28:53;;;;;;;7.50;3.92;;;;;;;26.06;51.67;99983.25;4860323;29;20029;-43
2023/09/09 05:31:19;;;;;;;7.22;3.72;;;;;;;26.21;51.12;99982.16;4860055;29;20621;-43
2023/09/09 05:33:44;;;;;;;6.53;3.92;;;;;;;26.33;50.60;99980.53;4860067;29;20482;-41
2023/09/09 05:36:09;;;;;;;6.25;3.50;;;;;;;26.73;49.46;99990.94;4859600;29;20033;-41
2023/09/09 05:38:35;;;;;;;6.63;3.90;;;;;;;26.86;49.16;99986.56;4859765;29;20108;-42
2023/09/09 05:41:01;;;;;;;9.73;5.07;;;;;;;27.00;48.90;99989.31;4859647;29;20036;-41
2023/09/09 05:43:26;;;;;;;8.15;4.22;;;;;;;26.94;49.21;99994.06;4859758;29;20026;-41
2023/09/09 05:45:55;;;;;;;8.23;4.45;;;;;;;27.08;48.91;99983.91;4859637;29;20185;-46
2023/09/09 05:48:20;;;;;;;7.85;4.45;;;;;;;27.29;48.87;99984.25;4859878;29;20029;-44
2023/09/09 05:50:46;;;;;;;6.57;3.92;;;;;;;27.37;48.89;99979.19;4859821;29;20040;-42
2023/09/09 05:53:11;;;;;;;7.55;3.83;;;;;;;27.42;48.70;99976.34;4859877;29;20030;-43
2023/09/09 05:55:37;;;;;;;4.45;3.33;;;;;;;28.41;46.35;99971.53;4858963;29;20034;-42
2023/09/09 05:58:02;;;;;;;7.40;4.07;;;;;;;27.74;47.77;99985.34;4859406;29;20332;-43
2023/09/09 06:00:28;;;;;;;4.82;3.63;;;;;;;27.59;47.95;99975.66;4858982;29;20472;-43
2023/09/09 06:02:53;;;;;;;6.45;3.70;;;;;;;27.82;47.34;99990.09;4859546;29;20116;-44
2023/09/09 06:05:19;;;;;;;6.07;4.20;;;;;;;28.06;46.44;99984.28;4849593;29;20034;-43
2023/09/09 06:07:44;;;;;;;8.07;3.80;;;;;;;28.25;46.26;99984.03;4840657;29;20014;-42
2023/09/09 06:10:10;;;;;;;6.53;4.18;;;;;;;28.30;46.20;99978.44;4841095;29;20030;-41
2023/09/09 06:12:35;;;;;;;8.20;3.42;;;;;;;28.71;44.60;99982.78;4840978;29;20098;-41
2023/09/09 06:15:00;;;;;;;6.15;3.90;;;;;;;28.88;44.92;99987.44;4840758;29;20086;-43
2023/09/09 06:17:26;;;;;;;6.35;3.78;;;;;;;28.92;44.61;99977.47;4839898;29;20125;-41
2023/09/09 06:19:51;;;;;;;5.70;3.65;;;;;;;28.97;44.47;99984.72;4839575;29;20030;-42
2023/09/09 06:22:16;;;;;;;6.40;3.90;;;;;;;29.39;43.43;99983.13;4840005;29;20030;-43
2023/09/09 06:24:42;;;;;;;8.75;4.32;;;;;;;29.36;43.50;99980.22;4840155;29;20471;-45
2023/09/09 06:27:08;;;;;;;6.68;3.83;;;;;;;29.52;43.43;99991.50;4840024;29;20022;-41
2023/09/09 06:29:34;;;;;;;7.90;4.07;;;;;;;30.05;42.16;99992.22;4849033;29;20033;-42
2023/09/09 06:31:59;;;;;;;5.63;3.90;;;;;;;29.89;42.42;99986.44;4858839;29;20127;-44
2023/09/09 06:34:26;;;;;;;4.88;3.20;;;;;;;30.08;42.03;99986.06;4859304;29;20032;-42
2023/09/09 06:36:52;;;;;;;7.38;3.72;;;;;;;30.39;41.46;99994.84;4851816;29;20081;-44
2023/09/09 06:39:17;;;;;;;5.15;3.50;;;;;;;30.71;41.07;99997.25;4850959;29;20542;-43
2023/09/09 06:41:43;;;;;;;5.47;3.33;;;;;;;30.89;40.00;99993.25;4848150;29;20101;-45
2023/09/09 06:44:08;;;;;;;6.07;3.53;;;;;;;30.97;39.25;99995.16;4849859;29;20021;-43
2023/09/09 06:46:34;;;;;;;5.20;2.90;;;;;;;30.79;39.06;99996.41;4856348;29;20048;-44
2023/09/09 06:48:59;;;;;;;15.02;12.02;;;;;;;30.67;39.84;99999.03;4859683;29;20116;-43
2023/09/09 06:51:25;;;;;;;6.53;3.88;;;;;;;31.24;39.00;99998.50;4858315;29;20474;-43
2023/09/09 06:53:50;;;;;;;5.38;3.17;;;;;;;31.38;37.81;100000.97;4858260;29;20026;-43
2023/09/09 06:56:16;;;;;;;8.77;3.03;;;;;;;30.97;38.63;100000.66;4858117;29;20451;-41
2023/09/09 06:58:41;;;;;;;3.67;2.78;;;;;;;31.09;38.23;99999.09;4858303;29;20145;-42
2023/09/09 07:01:07;;;;;;;3.70;2.58;;;;;;;30.93;38.07;99996.97;4852583;29;20507;-42
2023/09/09 07:03:32;;;;;;;4.70;2.92;;;;;;;31.01;38.25;99998.03;4865592;29;20052;-44
2023/09/09 07:06:01;;;;;;;2.97;2.53;;;;;;;31.14;37.98;100007.94;4858736;29;20033;-43
2023/09/09 07:08:27;;;;;;;4.63;3.10;;;;;;;31.33;37.41;100001.19;4848702;29;20398;-43
2023/09/09 07:10:53;;;;;;;4.90;2.80;;;;;;;31.32;37.41;100003.13;4847716;29;20105;-45
2023/09/09 07:13:21;;;;;;;3.75;2.70;;;;;;;31.58;35.93;100012.31;4848151;29;20554;-45
2023/09/09 07:15:46;;;;;;;4.13;2.90;;;;;;;31.74;36.49;100005.81;4851607;29;20033;-42
2023/09/09 07:18:11;;;;;;;4.63;2.60;;;;;;;31.81;36.11;99999.75;4849640;29;20102;-41
2023/09/09 07:20:38;;;;;;;5.68;2.80;;;;;;;32.42;35.41;99992.75;4849342;29;20025;-43
2023/09/09 07:23:04;;;;;;;3.80;2.60;;;;;;;32.56;34.63;99995.97;4847901;29;20048;-42
2023/09/09 07:25:30;;;;;;;5.13;2.80;;;;;;;32.05;35.69;99993.53;4849216;29;20380;-44
2023/09/09 07:27:55;;;;;;;4.82;2.85;;;;;;;31.74;36.72;99994.81;4855531;29;20048;-45
2023/09/09 07:30:21;;;;;;;6.13;2.80;;;;;;;31.72;37.19;100010.03;4857797;29;20439;-45
2023/09/09 07:32:46;;;;;;;4.15;2.83;;;;;;;31.87;36.96;100000.34;4849214;29;20030;-43
2023/09/09 07:35:11;;;;;;;5.38;2.70;;;;;;;31.57;36.26;99997.75;4852823;29;20045;-43
2023/09/09 07:37:37;;;;;;;5.65;2.97;;;;;;;31.65;36.42;99998.81;4849863;29;20114;-44
2023/09/09 07:40:04;;;;;;;4.25;2.80;;;;;;;31.82;35.45;99995.88;4850635;29;20443;-44
2023/09/09 07:42:29;;;;;;;6.28;2.70;;;;;;;32.04;34.75;99991.13;4852527;29;20037;-44
2023/09/09 07:44:55;;;;;;;3.67;2.85;;;;;;;31.89;34.49;99998.88;4851896;29;20045;-44
2023/09/09 07:47:20;;;;;;;5.85;2.80;;;;;;;31.92;34.90;99983.63;4843341;29;20061;-43
2023/09/09 07:49:46;;;;;;;4.10;2.65;;;;;;;32.60;34.55;99988.63;4860398;29;20121;-44
2023/09/09 07:52:11;;;;;;;5.32;2.80;;;;;;;32.12;35.12;99984.69;4858323;29;20082;-42
2023/09/09 07:54:37;;;;;;;4.85;3.05;;;;;;;31.99;34.46;99983.88;4861590;29;20041;-42
2023/09/09 07:57:02;;;;;;;6.53;3.38;;;;;;;31.74;35.32;99991.28;4860081;29;20033;-43
2023/09/09 07:59:28;;;;;;;5.03;3.00;;;;;;;31.26;33.91;99985.22;4851832;29;20375;-43
2023/09/09 08:01:54;;;;;;;3.40;2.50;;;;;;;31.40;33.35;99984.13;4851417;29;20045;-44
2023/09/09 08:04:20;;;;;;;4.03;2.55;;;;;;;31.36;34.24;99995.03;4852810;29;20506;-43
2023/09/09 08:06:46;;;;;;;5.88;2.60;;;;;;;31.49;35.05;99990.38;4850315;29;20102;-42
2023/09/09 08:09:11;;;;;;;4.68;2.75;;;;;;;31.94;33.35;99984.09;4852125;29;20041;-43
2023/09/09 08:11:37;;;;;;;5.07;2.92;;;;;;;32.07;32.44;99987.69;4858416;29;20033;-43
2023/09/09 08:14:02;;;;;;;3.20;2.50;;;;;;;32.59;31.39;99984.25;4860730;29;20380;-45
2023/09/09 08:16:30;;;;;;;5.70;2.72;;;;;;;32.60;31.30;99983.13;4853345;29;20045;-42
2023/09/09 08:18:55;;;;;;;3.78;2.45;;;;;;;32.55;31.04;99986.06;4853264;29;20025;-44
2023/09/09 08:21:21;;;;;;;6.35;2.70;;;;;;;32.33;30.87;99982.66;4851786;29;20033;-44
2023/09/09 08:23:46;;;;;;;3.30;2.55;;;;;;;32.19;31.16;99978.63;4851704;29;20021;-44
2023/09/09 08:26:12;;;;;;;4.95;2.70;;;;;;;32.68;30.37;99979.44;4852070;29;20076;-43
2023/09/09 08:28:37;;;;;;;4.82;2.50;;;;;;;32.32;30.55;99986.53;4850071;29;20026;-44
2023/09/09 08:31:03;;;;;;;4.80;2.40;;;;;;;32.32;29.44;99983.78;4842523;29;20030;-48
2023/09/09 08:33:28;;;;;;;5.28;2.30;;;;;;;32.33;28.77;99979.13;4842538;29;20037;-45
2023/09/09 08:36:02;;;;;;;2.92;2.33;;;;;;;33.06;28.89;99978.19;4851918;29;20097;-45
2023/09/09 08:38:28;;;;;;;3.15;2.00;;;;;;;33.13;27.54;99974.88;4860687;29;20045;-44
2023/09/09 08:41:03;;;;;;;4.05;2.40;;;;;;;32.45;27.68;99976.34;4861040;29;20033;-41
2023/09/09 08:43:45;;;;;;;4.35;2.25;;;;;;;32.26;27.47;99967.88;4861025;29;20074;-44
2023/09/09 08:46:17;;;;;;;2.58;1.98;;;;;;;32.39;27.30;99969.47;4849835;29;20128;-44
2023/09/09 08:48:43;;;;;;;3.08;2.13;;;;;;;32.55;26.43;99969.56;4849967;29;20669;-44
2023/09/09 08:51:15;;;;;;;2.72;1.90;;;;;;;32.51;26.00;99968.66;4851900;29;20347;-42
2023/09/09 08:53:42;;;;;;;4.15;2.00;;;;;;;32.61;25.19;99965.44;4851441;29;20037;-44
2023/09/09 08:56:09;;;;;;;3.05;1.90;;;;;;;33.06;25.16;99971.88;4847032;29;20153;-46
2023/09/09 08:58:35;;;;;;;5.45;2.13;;;;;;;33.09;25.25;99968.41;4859124;29;20151;-44
2023/09/09 09:01:00;;;;;;;2.97;2.30;;;;;;;32.78;25.68;99964.38;4845266;29;20546;-42
2023/09/09 09:03:26;;;;;;;2.53;1.95;;;;;;;32.56;24.90;99956.56;4842186;29;20030;-43
2023/09/09 09:05:54;;;;;;;5.45;2.50;;;;;;;32.47;24.09;99956.72;4859993;29;20029;-45
2023/09/09 09:08:19;;;;;;;2.63;2.03;;;;;;;32.09;23.58;99955.13;4860168;29;20481;-45
2023/09/09 09:10:48;;;;;;;3.10;2.05;;;;;;;31.71;23.87;99967.19;4860509;29;20021;-43
2023/09/09 09:13:13;;;;;;;;;;;;;;;31.70;24.42;99962.81;4860848;29;20410;-45
2023/09/09 09:15:41;;;;;;;5.25;2.70;;;;;;;31.65;24.95;99965.81;4860018;29;19922;-45
2023/09/09 09:18:08;;;;;;;2.85;2.00;;;;;;;31.77;25.20;99961.13;4859636;29;20124;-43
2023/09/09 09:20:33;;;;;;;6.03;2.80;;;;;;;31.78;25.08;99956.44;4844101;29;20088;-45
2023/09/09 09:23:01;;;;;;;3.75;2.15;;;;;;;31.66;25.51;99959.16;4841521;29;20034;-46
2023/09/09 09:25:28;;;;;;;2.67;2.10;;;;;;;31.69;26.13;99944.72;4841927;29;20058;-44
2023/09/09 09:27:57;;;;;;;2.80;2.08;;;;;;;32.34;24.51;99948.47;4841413;29;20029;-47
2023/09/09 09:30:24;;;;;;;4.72;2.08;;;;;;;32.12;24.88;99948.91;4841426;29;20038;-44
2023/09/09 09:32:53;;;;;;;3.72;2.20;;;;;;;32.14;25.75;99941.16;4841723;29;20068;-42
2023/09/09 09:35:27;;;;;;;5.05;2.35;;;;;;;31.95;25.42;99947.97;4841155;29;20160;-44
2023/09/09 09:38:06;;;;;;;3.38;2.22;;;;;;;32.20;25.42;99933.47;4841238;29;20372;-44
2023/09/09 09:40:31;;;;;;;3.80;2.20;;;;;;;32.48;24.70;99939.03;4841625;29;20032;-44
2023/09/09 09:42:57;;;;;;;4.07;2.25;;;;;;;32.31;25.54;99932.66;4841174;29;20037;-45
2023/09/09 09:45:24;;;;;;;4.30;2.03;;;;;;;32.40;25.50;99939.97;4841316;29;20042;-45
2023/09/09 09:47:50;;;;;;;4.32;2.22;;;;;;;32.48;25.54;99937.09;4841450;29;20701;-44
2023/09/09 09:50:18;;;;;;;4.53;3.00;;;;;;;32.60;24.38;99930.78;4840710;29;20535;-44
2023/09/09 09:53:08;;;;;;;3.60;2.40;;;;;;;32.42;24.13;99926.66;4841066;29;20505;-46
2023/09/09 09:55:34;;;;;;;;;;;;;;;32.05;23.68;99933.00;4841645;29;20065;-43
2023/09/09 09:58:05;;;;;;;3.95;2.13;;;;;;;31.33;24.72;99926.97;4840979;29;19927;-44
2023/09/09 10:00:30;;;;;;;3.35;1.90;;;;;;;31.55;25.31;99925.81;4840259;29;20057;-44
2023/09/09 10:02:58;;;;;;;3.20;2.40;;;;;;;31.90;24.44;99928.94;4854431;29;20440;-45
2023/09/09 10:05:26;;;;;;;2.45;1.90;;;;;;;31.50;24.78;99932.31;4841245;29;20046;-44
2023/09/09 10:07:56;;;;;;;4.15;2.25;;;;;;;31.09;25.06;99933.16;4841028;29;20022;-45
2023/09/09 10:10:25;;;;;;;3.10;2.08;;;;;;;31.16;25.46;99920.47;4840437;29;20400;-46
2023/09/09 10:12:51;;;;;;;3.08;2.10;;;;;;;31.47;25.24;99926.69;4851297;29;20038;-42
2023/09/09 10:15:18;;;;;;;4.10;1.95;;;;;;;31.65;24.53;99917.09;4859369;29;20037;-42
2023/09/09 10:17:46;;;;;;;3.03;2.00;;;;;;;31.95;24.53;99916.91;4841788;29;20038;-44
2023/09/09 10:20:12;;;;;;;5.15;2.25;;;;;;;31.98;24.01;99910.72;4840979;29;20143;-43
2023/09/09 10:22:40;;;;;;;3.15;1.83;;;;;;;32.05;24.25;99915.69;4840256;29;20052;-44
2023/09/09 10:25:10;;;;;;;3.25;2.17;;;;;;;31.98;23.66;99912.66;4840077;29;20030;-43
2023/09/09 10:27:37;;;;;;;3.00;1.90;;;;;;;31.68;23.92;99899.94;4840080;29;20054;-42
2023/09/09 10:30:04;;;;;;;3.03;1.80;;;;;;;31.72;25.25;99898.09;4857774;29;20558;-43
2023/09/09 10:32:32;;;;;;;5.18;2.20;;;;;;;32.13;25.17;99898.25;4852142;29;20774;-43
2023/09/09 10:34:59;;;;;;;2.22;1.83;;;;;;;32.29;24.37;99888.16;4846693;29;20114;-44
2023/09/09 10:37:26;;;;;;;3.28;2.00;;;;;;;32.60;22.90;99892.25;4846987;29;20116;-45
2023/09/09 10:39:52;;;;;;;3.03;2.10;;;;;;;32.50;23.39;99892.69;4858381;29;20037;-44
2023/09/09 10:42:18;;;;;;;3.65;2.00;;;;;;;32.41;23.33;99889.28;4858281;29;20029;-43
2023/09/09 10:44:50;;;;;;;2.30;1.80;;;;;;;32.16;23.74;99886.56;4852918;29;20053;-46
2023/09/09 10:47:16;;;;;;;3.10;2.00;;;;;;;32.01;23.51;99887.22;4849101;29;20026;-44
2023/09/09 10:49:42;;;;;;;4.30;2.00;;;;;;;32.34;22.97;99879.63;4852873;29;20056;-45
2023/09/09 10:52:27;;;;;;;3.38;1.90;;;;;;;32.42;21.06;99877.88;4858305;29;20147;-47
2023/09/09 10:55:09;;;;;;;4.65;1.70;;;;;;;32.31;20.46;99880.34;4848964;29;20045;-45
2023/09/09 10:57:35;;;;;;;3.28;1.60;;;;;;;31.83;20.54;99867.38;4839867;29;20050;-43
2023/09/09 11:00:10;;;;;;;2.00;1.52;;;;;;;31.88;21.23;99862.44;4843734;29;20054;-46
2023/09/09 11:02:46;;;;;;;4.55;1.75;;;;;;;32.14;21.46;99864.88;4854083;29;20069;-43
2023/09/09 11:05:14;;;;;;;3.05;1.90;;;;;;;32.03;20.84;99860.19;4838020;29;20057;-45
2023/09/09 11:07:41;;;;;;;2.85;1.70;;;;;;;31.79;20.73;99856.25;4839345;29;20108;-42
2023/09/09 11:10:07;;;;;;;3.45;1.67;;;;;;;30.94;23.05;99852.19;4838842;29;20034;-43
2023/09/09 11:12:32;;;;;;;2.88;1.88;;;;;;;30.44;22.88;99864.81;4839826;29;20044;-46
2023/09/09 11:15:07;;;;;;;2.72;1.83;;;;;;;30.96;22.24;99856.19;4839350;29;20033;-41
2023/09/09 11:17:36;;;;;;;2.58;1.70;;;;;;;31.46;22.06;99848.91;4838700;29;20109;-43
2023/09/09 11:20:03;;;;;;;3.00;2.28;;;;;;;31.61;21.60;99832.88;4839075;29;20038;-44
2023/09/09 11:22:29;;;;;;;2.65;1.70;;;;;;;31.97;20.72;99832.06;4839873;29;20036;-42
2023/09/09 11:24:57;;;;;;;3.15;1.60;;;;;;;32.00;21.25;99844.34;4839491;29;20144;-46
2023/09/09 11:27:24;;;;;;;3.03;1.70;;;;;;;32.12;21.19;99836.06;4841015;29;20053;-44